• Join FlightAware (Why Join?)
  • Login
  • US Flag 
01:01AM EDT


 

Airport Tracker/Info


-or-


 

Live Flight TrackerFlight Track Log ✈ DAL268 ✈ 27-Jul-2013 ✈ KJFK - LLBG / TLV

Flight Track Log - Related Links

Times and Time Zones

All times are in EDT time to prevent confusion due to time zone crossing. See the DAL268 flight status page for this flight to view local times or setup timezone preferences in your user account.

Time Position Orientation Groundspeed Altitude Reporting Facility
EDT Latitude Longitude Course Direction KTS MPH feet Rate Location/Type
02:52AM 40.6370 -73.7800 264° West  Level FlightAware
02:53AM 40.6370 -73.7790 90° East 10 12  Level FlightAware
02:54AM 40.6380 -73.7790 360° North 10 12  Level FlightAware
02:56AM 40.6000 -73.4680 90° East  Level FlightAware Approximate
02:57AM 40.5833 -73.2816 90° East  Level FlightAware Approximate
02:58AM 40.5545 -73.0992 97° East  Level FlightAware Approximate
02:59AM 40.5668 -72.9163 72° East  Level FlightAware Approximate
03:00AM 40.6200 -72.7400 66° East  Level FlightAware Approximate
03:01AM 40.6599 -72.5603 72° East  Level FlightAware Approximate
03:01AM 40.6360 -73.7790 180° South 18 21  Level FlightAware
03:02AM 40.6360 -73.7780 90° East 14 16  Level FlightAware
03:02AM 40.6350 -73.7780 180° South 14 16  Level FlightAware
03:03AM 40.6340 -73.7790 217° Southwest 17 20  Level FlightAware
03:04AM 40.6330 -73.7800 217° Southwest 22 25  Level FlightAware
03:04AM 40.6320 -73.7800 180° South 22 25  Level FlightAware
03:05AM 40.6310 -73.7800 180° South 23 26  Level FlightAware
03:05AM 40.6300 -73.7810 217° Southwest 23 26  Level FlightAware
03:05AM 40.6300 -73.7820 270° West 24 28  Level FlightAware
03:06AM 40.6280 -73.7830 201° Southwest 26 30  Level FlightAware
03:06AM 40.6270 -73.7840 217° Southwest 27 31  Level FlightAware
03:07AM 40.6260 -73.7850 217° Southwest 22 25  Level FlightAware
03:08AM 40.6240 -73.7860 201° Southwest 13 15  Level FlightAware
03:10AM 40.5995 -73.4479 108° East  Level FlightAware Approximate
03:11AM 40.5807 -73.2614 123° Southeast  Level FlightAware Approximate
03:12AM 40.5525 -73.0772 97° East  Level FlightAware Approximate
03:13AM 40.5723 -72.8943 72° East  Level FlightAware Approximate
03:14AM 40.6274 -72.7178 66° East  Level FlightAware Approximate
03:15AM 40.6659 -72.5363 72° East  Level FlightAware Approximate
03:16AM 40.7123 -72.3554 75° East  Level FlightAware Approximate
03:17AM 40.7567 -72.1732 72° East  Level FlightAware Approximate
03:18AM 40.8022 -71.9914 72° East  Level FlightAware Approximate
03:19AM 40.8500 -71.8121 90° East  Level FlightAware Approximate
03:20AM 40.8924 -71.6303 72° East  Level FlightAware Approximate
03:21AM 40.9372 -71.4479 72° East  Level FlightAware Approximate
03:22AM 40.9816 -71.2651 72° East  Level FlightAware Approximate
03:23AM 41.0257 -71.0820 72° East  Level FlightAware Approximate
03:23AM 40.6240 -73.7840 37° Northeast 18 21  Level FlightAware
03:23AM 40.6250 -73.7840 360° North 21 24  Level FlightAware
03:24AM 40.6250 -73.7830 90° East 23 26  Level FlightAware
03:24AM 40.6260 -73.7820 37° Northeast 33 38  Level FlightAware
03:24AM 40.6280 -73.7810 21° North 19 22  Level FlightAware
03:25AM 40.6300 -73.7790 37° Northeast 20 23  Level FlightAware
03:25AM 40.6320 -73.7780 21° North 28 32  Level FlightAware
03:25AM 40.6330 -73.7780 360° North 26 30  Level FlightAware
03:26AM 40.6340 -73.7780 360° North 20 23  Level FlightAware
03:27AM 40.6350 -73.7770 37° Northeast 18 21  Level FlightAware
03:27AM 40.6350 -73.7780 270° West 11 13  Level FlightAware
03:28AM 40.6360 -73.7790 323° Northwest 16 18  Level FlightAware
03:31AM 40.5833 -73.2948 90° East  Level FlightAware Approximate
03:32AM 40.5556 -73.1113 97° East  Level FlightAware Approximate
03:33AM 40.5667 -72.9405 90° East  Level FlightAware Approximate
03:34AM 40.6089 -72.7732 66° East  Level FlightAware Approximate
03:35AM 40.6480 -72.6060 66° East  Level FlightAware Approximate
03:36AM 40.6938 -72.4385 69° East  Level FlightAware Approximate
03:37AM 40.7330 -72.2681 72° East  Level FlightAware Approximate
03:38AM 40.7754 -72.0987 72° East  Level FlightAware Approximate
03:39AM 40.8180 -71.9294 66° East  Level FlightAware Approximate
03:40AM 40.8563 -71.7612 69° East  Level FlightAware Approximate
03:41AM 40.9017 -71.5930 72° East  Level FlightAware Approximate
03:42AM 40.9433 -71.4229 72° East  Level FlightAware Approximate
03:43AM 40.9846 -71.2525 72° East  Level FlightAware Approximate
03:44AM 41.0257 -71.0820 72° East  Level FlightAware Approximate
03:45AM 41.0666 -70.9112 72° East  Level FlightAware Approximate
03:46AM 41.1072 -70.7402 72° East  Level FlightAware Approximate
03:47AM 41.1441 -70.5764 74° East  Level FlightAware Approximate
03:48AM 41.1804 -70.4122 74° East  Level FlightAware Approximate
03:49AM 40.6370 -73.7800 270° West 11 13  Level FlightAware
03:52AM 40.5964 -73.4354 108° East  Level FlightAware Approximate
03:53AM 40.5833 -73.2686 90° East  Level FlightAware Approximate
03:54AM 40.5552 -73.1065 97° East  Level FlightAware Approximate
03:55AM 40.5667 -72.9439 90° East  Level FlightAware Approximate
03:56AM 40.6054 -72.7839 66° East  Level FlightAware Approximate
03:57AM 40.6419 -72.6243 66° East  Level FlightAware Approximate
03:58AM 40.6862 -72.4649 69° East  Level FlightAware Approximate
03:59AM 40.7243 -72.3028 72° East  Level FlightAware Approximate
04:00AM 40.7647 -72.1413 72° East  Level FlightAware Approximate
04:01AM 40.8051 -71.9798 72° East  Level FlightAware Approximate
04:02AM 40.8500 -71.8212 90° East  Level FlightAware Approximate
04:03AM 40.8852 -71.6593 72° East  Level FlightAware Approximate
04:04AM 40.9252 -71.4973 72° East  Level FlightAware Approximate
04:05AM 40.9647 -71.3350 72° East  Level FlightAware Approximate
04:06AM 41.0040 -71.1725 72° East  Level FlightAware Approximate
04:07AM 41.0430 -71.0098 72° East  Level FlightAware Approximate
04:08AM 41.0819 -70.8469 72° East  Level FlightAware Approximate
04:09AM 41.1203 -70.6837 74° East  Level FlightAware Approximate
04:10AM 41.1567 -70.5197 74° East  Level FlightAware Approximate
04:11AM 41.1929 -70.3554 74° East  Level FlightAware Approximate
04:12AM 41.2289 -70.1910 74° East  Level FlightAware Approximate
04:13AM 41.2646 -70.0264 74° East  Level FlightAware Approximate
04:14AM 41.3550 -69.9061 43° Northeast  Level FlightAware Approximate
04:15AM 41.4487 -69.7882 43° Northeast  Level FlightAware Approximate
04:16AM 41.5381 -69.6753 43° Northeast  Level FlightAware Approximate
04:17AM 41.6274 -69.5620 43° Northeast  Level FlightAware Approximate
04:18AM 41.7168 -69.4487 43° Northeast  Level FlightAware Approximate
04:19AM 41.8061 -69.3352 43° Northeast  Level FlightAware Approximate
04:20AM 41.8951 -69.2217 44° Northeast  Level FlightAware Approximate
04:21AM 41.9839 -69.1079 44° Northeast  Level FlightAware Approximate
04:22AM 42.0727 -68.9937 44° Northeast  Level FlightAware Approximate
04:23AM 42.1613 -68.8792 44° Northeast  Level FlightAware Approximate
04:24AM 42.2498 -68.7645 44° Northeast  Level FlightAware Approximate
04:25AM 42.3382 -68.6494 44° Northeast  Level FlightAware Approximate
04:26AM 42.4264 -68.5339 44° Northeast  Level FlightAware Approximate
04:27AM 42.5146 -68.4182 44° Northeast  Level FlightAware Approximate
04:28AM 42.6026 -68.3021 44° Northeast  Level FlightAware Approximate
04:29AM 42.6906 -68.1857 44° Northeast  Level FlightAware Approximate
04:30AM 42.7784 -68.0689 44° Northeast  Level FlightAware Approximate
04:31AM 42.8661 -67.9518 44° Northeast  Level FlightAware Approximate
04:32AM 42.9536 -67.8344 44° Northeast  Level FlightAware Approximate
04:33AM 43.0411 -67.7167 45° Northeast  Level FlightAware Approximate
04:34AM 43.1284 -67.5986 45° Northeast  Level FlightAware Approximate
04:35AM 43.2099 -67.4879 45° Northeast  Level FlightAware Approximate
04:36AM 43.2903 -67.3755 46° Northeast  Level FlightAware Approximate
04:37AM 43.3696 -67.2614 46° Northeast  Level FlightAware Approximate
04:38AM 43.4488 -67.1470 46° Northeast  Level FlightAware Approximate
04:39AM 43.5278 -67.0323 46° Northeast  Level FlightAware Approximate
04:40AM 43.6042 -66.9142 49° Northeast  Level FlightAware Approximate
04:41AM 43.6795 -66.7945 49° Northeast  Level FlightAware Approximate
04:42AM 43.7547 -66.6745 49° Northeast  Level FlightAware Approximate
04:43AM 43.8297 -66.5543 49° Northeast  Level FlightAware Approximate
04:44AM 43.9047 -66.4337 49° Northeast  Level FlightAware Approximate
04:45AM 43.9795 -66.3128 49° Northeast  Level FlightAware Approximate
04:46AM 44.0541 -66.1916 49° Northeast  Level FlightAware Approximate
04:47AM 44.1287 -66.0701 49° Northeast  Level FlightAware Approximate
04:48AM 44.2063 -65.9430 50° Northeast  Level FlightAware Approximate
04:49AM 44.2838 -65.8157 50° Northeast  Level FlightAware Approximate
04:50AM 44.3611 -65.6879 50° Northeast  Level FlightAware Approximate
04:51AM 44.4383 -65.5598 50° Northeast  Level FlightAware Approximate
04:52AM 44.5154 -65.4314 50° Northeast  Level FlightAware Approximate
04:53AM 44.5923 -65.3027 50° Northeast  Level FlightAware Approximate
04:54AM 44.6691 -65.1736 50° Northeast  Level FlightAware Approximate
04:55AM 44.7457 -65.0441 50° Northeast  Level FlightAware Approximate
04:56AM 44.8222 -64.9143 50° Northeast  Level FlightAware Approximate
04:57AM 44.8985 -64.7842 50° Northeast  Level FlightAware Approximate
04:58AM 44.9747 -64.6537 50° Northeast  Level FlightAware Approximate
04:59AM 45.0507 -64.5229 51° Northeast  Level FlightAware Approximate
05:00AM 45.1266 -64.3917 51° Northeast  Level FlightAware Approximate
05:01AM 45.2023 -64.2602 51° Northeast  Level FlightAware Approximate
05:02AM 45.2779 -64.1283 51° Northeast  Level FlightAware Approximate
05:03AM 45.3533 -63.9961 51° Northeast  Level FlightAware Approximate
05:04AM 45.4286 -63.8636 51° Northeast  Level FlightAware Approximate
05:05AM 45.5191 -63.7034 51° Northeast  Level FlightAware Approximate
05:06AM 45.6094 -63.5426 51° Northeast  Level FlightAware Approximate
05:07AM 45.6994 -63.3814 51° Northeast  Level FlightAware Approximate
05:07AM 40.6380 -73.7790 53° Northeast 9 10  Level FlightAware
05:08AM 45.7892 -63.2197 51° Northeast  Level FlightAware Approximate
05:09AM 45.8788 -63.0574 52° Northeast  Level FlightAware Approximate
05:10AM 45.9681 -62.8946 52° Northeast  Level FlightAware Approximate
05:11AM 46.0573 -62.7313 52° Northeast  Level FlightAware Approximate
05:12AM 46.1458 -62.5670 52° Northeast  Level FlightAware Approximate
05:13AM 46.2339 -62.4021 52° Northeast  Level FlightAware Approximate
05:14AM 46.3218 -62.2365 52° Northeast  Level FlightAware Approximate
05:15AM 46.4094 -62.0705 53° Northeast  Level FlightAware Approximate
05:16AM 46.4968 -61.9039 53° Northeast  Level FlightAware Approximate
05:17AM 46.5840 -61.7369 53° Northeast  Level FlightAware Approximate
05:18AM 46.6709 -61.5692 53° Northeast  Level FlightAware Approximate
05:19AM 46.7576 -61.4010 53° Northeast  Level FlightAware Approximate
05:19AM 40.6360 -73.7780 143° Southeast 20 23  Level FlightAware
05:20AM 40.6350 -73.7780 180° South 16 18 60 Level FlightAware
05:20AM 40.6340 -73.7790 217° Southwest 29 33 60 Level FlightAware
05:21AM 40.6310 -73.7800 194° South 16 18 60 Level FlightAware
05:21AM 40.6280 -73.7830 217° Southwest 17 20 60 Level FlightAware
05:23AM 40.6250 -73.7850 207° Southwest 24 28 60 Level FlightAware
05:23AM 40.6230 -73.7870 217° Southwest 20 23 120 Level FlightAware
05:24AM 40.6230 -73.7860 90° East 19 22 120 Level FlightAware
05:24AM 40.6220 -73.7860 180° South 20 23 180 Level FlightAware
05:25AM 40.6280 -73.7810 32° Northeast 88 101 240 Level FlightAware
05:25AM 40.6380 -73.7730 31° Northeast 155 178 480 Level FlightAware
05:25AM 40.6580 -73.7570 31° Northeast 183 211 400 1,020 Climbing FlightAware
05:26AM 40.6650 -73.7490 41° Northeast 186 214 700 1,020 Climbing FlightAware
05:26AM 40.6720 -73.7320 61° Northeast 196 226 900 1,200 Climbing FlightAware
05:26AM 40.6750 -73.6970 84° East 205 236 1,600 1,320 Climbing FlightAware
05:27AM 40.6760 -73.6830 85° East 211 243 1,800 1,020 Climbing FlightAware
05:27AM 40.6710 -73.6330 97° East 245 282 2,400 900 Climbing FlightAware
05:28AM 40.6630 -73.5900 104° East 267 307 2,800 1,020 Climbing FlightAware
05:28AM 40.6580 -73.5630 104° East 278 320 3,200 1,500 Climbing FlightAware
05:28AM 40.6500 -73.5160 103° East 297 342 3,900 1,680 Climbing FlightAware
05:29AM 40.6420 -73.4730 104° East 307 353 4,700 2,040 Climbing FlightAware
05:29AM 40.6330 -73.4210 103° East 315 362 5,700 2,160 Climbing FlightAware
05:30AM 40.6230 -73.3640 103° East 322 371 6,800 2,160 Climbing FlightAware
05:30AM 40.6149 -73.3196 103° East 327 376 7,600 2,100 Climbing FlightAware ADS-B
05:30AM 40.6090 -73.2864 103° East 330 380 8,200 2,160 Climbing FlightAware ADS-B
05:31AM 40.6034 -73.2566 104° East 334 384 8,800 2,400 Climbing FlightAware ADS-B
05:31AM 40.5976 -73.2230 103° East 334 384 9,500 1,740 Climbing FlightAware ADS-B
05:32AM 40.5790 -73.1200 103° East 358 412 10,800 1,440 Climbing FlightAware
05:32AM 40.5731 -73.0893 104° East 335 386 11,100 1,080 Climbing FlightAware ADS-B
05:32AM 40.5705 -73.0691 100° East 380 437 11,200 960 Climbing FlightAware ADS-B
05:33AM 40.5782 -73.0032 81° East 408 470 11,700 900 Climbing FlightAware ADS-B
05:33AM 40.5902 -72.9772 59° Northeast 421 484 11,800 960 Climbing FlightAware ADS-B
05:34AM 40.6540 -72.8840 48° Northeast 452 520 12,700 1,140 Climbing FlightAware
05:34AM 40.6807 -72.8448 48° Northeast 434 499 13,100 1,560 Climbing FlightAware ADS-B
05:35AM 40.7703 -72.7174 47° Northeast 480 552 14,800 1,620 Climbing FlightAware ADS-B
05:36AM 40.8217 -72.6425 48° Northeast 489 563 15,700 1,560 Climbing FlightAware ADS-B
05:36AM 40.8685 -72.5728 48° Northeast 498 573 16,500 1,560 Climbing FlightAware ADS-B
05:37AM 40.9195 -72.4975 48° Northeast 504 580 17,400 1,500 Climbing FlightAware ADS-B
05:37AM 40.9676 -72.4260 48° Northeast 510 587 18,100 1,320 Climbing FlightAware ADS-B
05:38AM 41.0113 -72.3626 48° Northeast 517 595 18,700 1,320 Climbing FlightAware ADS-B
05:38AM 41.0598 -72.2912 48° Northeast 523 602 19,400 1,320 Climbing FlightAware ADS-B
05:39AM 41.1109 -72.2140 49° Northeast 529 609 20,100 1,380 Climbing FlightAware ADS-B
05:39AM 41.1634 -72.1363 48° Northeast 532 612 20,900 1,140 Climbing FlightAware ADS-B
05:41AM 41.1270 -72.1900 228° Southwest 22,800 1,020 Climbing FlightAware
05:41AM 41.3460 -71.8630 48° Northeast 553 636 23,400 660 Climbing FlightAware
05:42AM 41.4440 -71.7170 48° Northeast 556 640 23,600 1,200 Climbing FlightAware
05:43AM 41.5260 -71.5900 49° Northeast 561 646 24,900 1,320 Climbing FlightAware
05:43AM 41.6020 -71.4840 46° Northeast 565 650 25,500 900 Climbing FlightAware
05:44AM 41.6830 -71.3900 41° Northeast 567 652 26,200 1,260 Climbing FlightAware
05:45AM 41.7700 -71.2990 38° Northeast 563 648 27,200 1,260 Climbing FlightAware
05:46AM 41.8680 -71.2140 33° Northeast 554 638 28,000 1,080 Climbing FlightAware
05:46AM 41.9640 -71.1310 33° Northeast 557 641 28,900 720 Climbing FlightAware
05:47AM 42.0520 -71.0530 33° Northeast 557 641 29,100 120 Climbing FlightAware
05:48AM 42.1500 -70.9680 33° Northeast 556 640 29,100  Level FlightAware
05:48AM 42.2270 -70.9000 33° Northeast 556 640 29,100  Level FlightAware
05:49AM 42.3140 -70.8240 33° Northeast 557 641 29,100  Level FlightAware
05:50AM 42.3970 -70.7290 40° Northeast 559 643 29,100  Level FlightAware
05:50AM 42.4850 -70.6230 42° Northeast 559 643 29,100  Level FlightAware
05:51AM 42.5640 -70.5320 40° Northeast 554 638 29,100  Level FlightAware
05:52AM 42.6410 -70.4430 40° Northeast 559 643 29,100  Level FlightAware
05:52AM 42.7230 -70.3460 41° Northeast 559 643 29,100  Level FlightAware
05:53AM 42.8010 -70.2520 41° Northeast 560 644 29,100 360 Level FlightAware
05:54AM 42.8750 -70.1430 47° Northeast 560 644 29,600 840 Climbing FlightAware
05:55AM 42.9460 -70.0190 52° Northeast 554 638 30,400 900 Climbing FlightAware
05:55AM 43.0150 -69.9030 51° Northeast 554 638 31,000 480 Climbing FlightAware
05:56AM 43.0710 -69.8060 52° Northeast 556 640 31,100 60 Climbing FlightAware
05:57AM 43.1410 -69.6830 52° Northeast 557 641 31,100  Level FlightAware
05:58AM 43.2440 -69.5010 52° Northeast 557 641 31,100  Level FlightAware
05:58AM 43.2970 -69.4080 52° Northeast 555 639 31,100  Level FlightAware
05:59AM 43.3500 -69.3160 52° Northeast 555 639 31,100  Level FlightAware
06:00AM 43.4510 -69.1380 52° Northeast 555 639 31,100  Level FlightAware
06:01AM 43.5000 -69.0500 52° Northeast 555 639 31,100  Level FlightAware
06:01AM 43.5490 -68.9650 51° Northeast 555 639 31,100  Level FlightAware
06:02AM 43.5810 -68.9080 52° Northeast 555 639 31,100  Level FlightAware
06:03AM 43.6430 -68.7990 52° Northeast 555 639 31,100  Level FlightAware
06:03AM 43.7830 -68.5400 53° Northeast 557 641 31,100  Level FlightAware
06:04AM 43.8320 -68.4510 53° Northeast 557 641 31,100  Level FlightAware
06:05AM 43.9120 -68.3040 53° Northeast 554 638 31,100  Level FlightAware
06:06AM 43.9810 -68.1770 53° Northeast 548 631 31,100  Level FlightAware
06:06AM 44.0430 -68.0630 53° Northeast 547 629 31,100  Level FlightAware
06:07AM 44.1050 -67.9470 53° Northeast 546 628 31,100  Level FlightAware
06:08AM 44.1720 -67.8220 53° Northeast 545 627 31,100  Level FlightAware
06:08AM 44.2430 -67.6910 53° Northeast 545 627 31,100  Level FlightAware
06:09AM 44.3050 -67.5750 53° Northeast 544 626 31,100  Level FlightAware
06:10AM 44.3640 -67.4650 53° Northeast 546 628 31,100  Level FlightAware
06:10AM 44.4250 -67.3490 54° Northeast 544 626 31,100  Level FlightAware
06:11AM 44.4920 -67.2210 54° Northeast 544 626 31,100  Level FlightAware
06:12AM 44.5450 -67.1220 53° Northeast 545 627 31,100  Level FlightAware
06:12AM 44.6040 -67.0110 53° Northeast 547 629 31,100  Level FlightAware
06:13AM 44.6710 -66.8820 54° Northeast 548 631 31,100  Level FlightAware
06:14AM 44.7320 -66.7640 54° Northeast 549 632 31,100  Level FlightAware
06:15AM 44.7990 -66.6370 53° Northeast 548 631 31,100  Level FlightAware
06:15AM 44.8590 -66.5190 54° Northeast 547 629 31,100  Level FlightAware
06:16AM 44.9260 -66.3890 54° Northeast 547 629 31,100  Level FlightAware
06:17AM 44.9780 -66.2880 54° Northeast 547 629 31,100  Level FlightAware
06:17AM 45.0360 -66.1750 54° Northeast 547 629 31,100  Level FlightAware
06:18AM 45.0950 -66.0590 54° Northeast 541 623 31,100  Level FlightAware
06:19AM 45.1550 -65.9400 54° Northeast 541 623 31,100  Level FlightAware
06:19AM 45.2130 -65.8270 54° Northeast 540 621 31,100  Level FlightAware
06:20AM 45.2880 -65.6750 55° Northeast 544 626 31,100  Level FlightAware
06:21AM 45.3710 -65.5090 55° Northeast 544 626 31,100  Level FlightAware
06:22AM 45.4320 -65.3870 55° Northeast 544 626 31,100  Level FlightAware
06:22AM 45.4890 -65.2720 55° Northeast 543 625 31,100  Level FlightAware
06:23AM 45.5490 -65.1470 56° Northeast 541 623 31,100  Level FlightAware
06:24AM 45.6130 -65.0180 55° Northeast 540 621 31,100  Level FlightAware
06:24AM 45.6690 -64.9040 55° Northeast 539 620 31,100  Level FlightAware
06:25AM 45.7340 -64.7700 55° Northeast 536 617 31,100  Level FlightAware
06:26AM 45.7830 -64.6680 55° Northeast 535 616 31,100  Level FlightAware
06:27AM 45.8440 -64.5440 55° Northeast 535 616 31,100  Level FlightAware
06:27AM 45.9090 -64.4080 55° Northeast 533 613 31,100  Level FlightAware
06:28AM 45.9570 -64.3090 55° Northeast 533 613 31,100  Level FlightAware
06:29AM 46.0000 -64.2200 55° Northeast 533 613 31,100  Level FlightAware
06:29AM 46.0580 -64.1010 55° Northeast 533 613 31,100  Level FlightAware
06:30AM 46.1040 -64.0070 55° Northeast 533 613 31,100  Level FlightAware
06:31AM 46.1610 -63.8880 55° Northeast 533 613 31,100  Level FlightAware
06:31AM 46.2050 -63.7990 54° Northeast 533 613 31,100  Level FlightAware
06:32AM 46.2620 -63.6800 55° Northeast 533 613 31,100  Level FlightAware
06:33AM 46.3060 -63.5900 55° Northeast 533 613 31,100  Level FlightAware
06:34AM 46.3630 -63.4710 55° Northeast 533 613 31,100  Level FlightAware
06:34AM 46.4060 -63.3810 55° Northeast 533 613 31,100  Level FlightAware
06:35AM 46.4650 -63.2590 55° Northeast 533 613 31,100  Level FlightAware
06:36AM 46.5090 -63.1690 55° Northeast 533 613 31,100  Level FlightAware
06:36AM 46.5660 -63.0490 55° Northeast 533 613 31,100  Level FlightAware
06:37AM 46.7150 -62.6710 60° Northeast 533 613 31,100  Level FlightAware
06:38AM 46.7550 -62.5850 56° Northeast 533 613 31,100  Level FlightAware
06:38AM 46.8110 -62.4630 56° Northeast 533 613 31,100  Level FlightAware
06:39AM 46.8910 -62.2760 58° Northeast 533 613 31,100  Level FlightAware
06:40AM 46.9470 -62.1500 57° Northeast 533 613 31,100  Level FlightAware
06:41AM 47.0060 -62.0160 57° Northeast 532 612 31,100  Level FlightAware
06:42AM 47.0740 -61.8610 57° Northeast 533 613 31,100  Level FlightAware
06:43AM 47.1600 -61.6640 57° Northeast 531 611 31,100  Level FlightAware
06:43AM 47.2200 -61.5240 58° Northeast 532 612 31,100  Level FlightAware
06:44AM 47.2830 -61.3760 58° Northeast 532 612 31,100  Level FlightAware
06:45AM 47.3360 -61.2540 57° Northeast 530 610 31,100  Level FlightAware
06:46AM 47.3930 -61.1200 58° Northeast 527 606 31,100  Level FlightAware
06:46AM 47.4370 -61.0160 58° Northeast 527 606 31,100  Level FlightAware
06:47AM 47.4810 -60.9070 59° Northeast 527 606 31,100  Level FlightAware
06:48AM 47.5570 -60.7180 59° Northeast 527 606 31,100  Level FlightAware
06:49AM 47.5960 -60.6230 59° Northeast 527 606 31,100  Level FlightAware
06:49AM 47.6470 -60.4960 59° Northeast 527 606 31,100  Level FlightAware
06:50AM 47.6850 -60.4010 59° Northeast 527 606 31,100  Level FlightAware
06:51AM 47.7370 -60.2750 58° Northeast 527 606 31,100  Level FlightAware
06:51AM 47.7750 -60.1800 59° Northeast 527 606 31,100  Level FlightAware
06:52AM 47.8260 -60.0530 59° Northeast 527 606 31,100  Level FlightAware
06:53AM 47.8650 -59.9570 59° Northeast 527 606 31,100  Level FlightAware
06:54AM 47.9160 -59.8300 59° Northeast 527 606 31,100 720 Level FlightAware
06:54AM 47.7440 -59.3360 117° Southeast 32,200 1,440 Climbing FlightAware
06:55AM 47.7610 -59.2310 76° East 546 628 32,400 360 Climbing FlightAware
06:55AM 47.7770 -59.1320 76° East 546 628 32,600 420 Climbing FlightAware
06:56AM 47.8080 -58.9400 76° East 544 626 33,000 420 Climbing FlightAware
06:57AM 47.8310 -58.7950 77° East 541 623 33,300 360 Climbing FlightAware
06:57AM 47.8540 -58.6460 77° East 539 620 33,500 300 Climbing FlightAware
06:58AM 47.8790 -58.4840 77° East 540 621 33,800 300 Climbing FlightAware
06:59AM 47.9010 -58.3420 77° East 540 621 34,000 300 Climbing FlightAware
06:59AM 47.9260 -58.1800 77° East 539 620 34,300 600 Climbing FlightAware
07:00AM 47.9540 -57.9960 77° East 529 609 35,000 540 Climbing FlightAware
07:01AM 47.9720 -57.8720 78° East 527 606 35,100 60 Climbing FlightAware
07:02AM 47.9950 -57.7170 77° East 525 604 35,100  Level FlightAware
07:02AM 48.0210 -57.5550 76° East 521 600 35,100  Level FlightAware
07:03AM 48.0450 -57.4120 76° East 522 601 35,100  Level FlightAware
07:04AM 48.0670 -57.2800 76° East 521 600 35,100  Level FlightAware
07:04AM 48.0920 -57.1220 77° East 522 601 35,100  Level FlightAware
07:05AM 48.1180 -56.9640 76° East 522 601 35,100  Level FlightAware
07:06AM 48.1360 -56.8490 77° East 520 598 35,100  Level FlightAware
07:06AM 48.1620 -56.6850 77° East 518 596 35,100  Level FlightAware
07:07AM 48.1870 -56.5250 77° East 516 594 35,100  Level FlightAware
07:08AM 48.2080 -56.3860 77° East 513 590 35,100  Level FlightAware
07:09AM 48.2320 -56.2310 77° East 511 588 35,100  Level FlightAware
07:09AM 48.2530 -56.0930 77° East 510 587 35,100  Level FlightAware
07:10AM 48.2740 -55.9550 77° East 511 588 35,100  Level FlightAware
07:11AM 48.3040 -55.7500 78° East 512 589 35,100  Level FlightAware
07:12AM 48.3230 -55.6260 77° East 512 589 35,100  Level FlightAware
07:12AM 48.3410 -55.4970 78° East 513 590 35,100  Level FlightAware
07:13AM 48.3620 -55.3540 77° East 515 593 35,100  Level FlightAware
07:14AM 48.3830 -55.2070 78° East 517 595 35,100  Level FlightAware
07:14AM 48.4010 -55.0840 78° East 518 596 35,100  Level FlightAware
07:15AM 48.4230 -54.9260 78° East 519 597 35,100  Level FlightAware
07:16AM 48.4430 -54.7840 78° East 521 600 35,100  Level FlightAware
07:16AM 48.4650 -54.6230 78° East 523 602 35,100  Level FlightAware
07:17AM 48.4840 -54.4810 79° East 523 602 35,100  Level FlightAware
07:18AM 48.5060 -54.3200 78° East 522 601 35,100  Level FlightAware
07:18AM 48.5250 -54.1780 79° East 522 601 35,100  Level FlightAware
07:19AM 48.5440 -54.0350 79° East 521 600 35,100  Level FlightAware
07:20AM 48.5650 -53.8750 79° East 522 601 35,100  Level FlightAware
07:20AM 48.5840 -53.7320 79° East 522 601 35,100  Level FlightAware
07:21AM 48.6020 -53.5890 79° East 521 600 35,100  Level FlightAware
07:22AM 48.6230 -53.4250 79° East 520 598 35,100  Level FlightAware
07:23AM 48.6400 -53.2860 79° East 519 597 35,100  Level FlightAware
07:23AM 48.6600 -53.1250 79° East 521 600 35,100  Level FlightAware
07:24AM 48.6780 -52.9820 79° East 521 600 35,100  Level FlightAware
07:25AM 48.6950 -52.8390 80° East 521 600 35,100  Level FlightAware
07:25AM 48.7140 -52.6810 80° East 523 602 35,100  Level FlightAware
07:26AM 48.7350 -52.5010 80° East 525 604 35,100  Level FlightAware
07:27AM 48.7500 -52.3700 80° East 526 605 35,100  Level FlightAware
07:28AM 48.7680 -52.2140 80° East 528 608 35,100  Level FlightAware
07:28AM 48.7840 -52.0820 80° East 528 608 35,100  Level FlightAware
07:29AM 48.8030 -51.9110 80° East 529 609 35,100  Level FlightAware
07:30AM 48.8190 -51.7640 81° East 530 610 35,100  Level FlightAware
07:30AM 48.8340 -51.6280 80° East 530 610 35,100  Level FlightAware
07:31AM 48.8520 -51.4660 80° East 532 612 35,100  Level FlightAware
07:32AM 48.8700 -51.3010 81° East 530 610 35,100  Level FlightAware
07:32AM 48.8850 -51.1540 81° East 529 609 35,100  Level FlightAware
07:33AM 48.9040 -50.9700 81° East 529 609 35,100  Level FlightAware
07:34AM 48.9190 -50.8240 81° East 530 610 35,100  Level FlightAware
07:35AM 48.9320 -50.7010 81° East 530 610 35,100  Level FlightAware
07:35AM 48.9470 -50.5500 81° East 531 611 35,100  Level FlightAware
07:36AM 48.9640 -50.3780 81° East 530 610 35,100  Level FlightAware
07:37AM 48.9860 -50.1440 82° East 531 611 35,100  Level FlightAware
07:38AM 49.0060 -49.9740 80° East 535 616 35,100  Level FlightAware
07:38AM 49.0210 -49.8600 79° East 535 616 35,100  Level FlightAware
07:39AM 49.0450 -49.6710 79° East 535 616 35,100  Level FlightAware
07:40AM 49.0590 -49.5580 79° East 535 616 35,100  Level FlightAware
07:41AM 49.0740 -49.4450 79° East 535 616 35,100  Level FlightAware
07:41AM 49.0930 -49.2900 79° East 535 616 35,100  Level FlightAware
07:42AM 49.1080 -49.1760 79° East 535 616 35,100  Level FlightAware
07:43AM 49.1220 -49.0630 79° East 535 616 35,100  Level FlightAware
07:43AM 49.1410 -48.9110 79° East 535 616 35,100  Level FlightAware
07:44AM 49.1560 -48.7980 78° East 535 616 35,100  Level FlightAware
07:45AM 49.1710 -48.6810 79° East 535 616 35,100  Level FlightAware
07:45AM 49.1900 -48.5290 79° East 535 616 35,100  Level FlightAware
07:46AM 49.2040 -48.4150 79° East 535 616 35,100  Level FlightAware
07:47AM 49.2240 -48.2640 78° East 535 616 35,100  Level FlightAware
07:48AM 49.5167 -47.7167 78° East 540 621 35,100  Level Gander Center
07:49AM 49.5500 -47.4667 78° East 550 633 35,100  Level Gander Center
07:52AM 49.6171 -47.1767 70° East  Level FlightAware Approximate
07:59AM 49.9573 -45.6416 70° East  Level FlightAware Approximate
08:00AM 50.0042 -45.4206 72° East  Level FlightAware Approximate
08:01AM 50.0508 -45.1991 72° East  Level FlightAware Approximate
08:02AM 50.0969 -44.9772 72° East  Level FlightAware Approximate
08:03AM 50.1425 -44.7549 72° East  Level FlightAware Approximate
08:04AM 50.1878 -44.5321 72° East  Level FlightAware Approximate
08:05AM 50.2326 -44.3090 72° East  Level FlightAware Approximate
08:06AM 50.2770 -44.0854 73° East  Level FlightAware Approximate
08:07AM 50.3210 -43.8614 73° East  Level FlightAware Approximate
08:08AM 50.3645 -43.6369 73° East  Level FlightAware Approximate
08:09AM 50.4076 -43.4121 73° East  Level FlightAware Approximate
08:10AM 50.4502 -43.1869 73° East  Level FlightAware Approximate
08:11AM 50.4925 -42.9612 74° East  Level FlightAware Approximate
08:12AM 50.5343 -42.7352 74° East  Level FlightAware Approximate
08:13AM 50.5756 -42.5088 74° East  Level FlightAware Approximate
08:14AM 50.6165 -42.2819 74° East  Level FlightAware Approximate
08:15AM 50.6570 -42.0547 74° East  Level FlightAware Approximate
08:16AM 50.6970 -41.8271 74° East  Level FlightAware Approximate
08:17AM 50.7366 -41.5990 75° East  Level FlightAware Approximate
08:18AM 50.7758 -41.3707 75° East  Level FlightAware Approximate
08:19AM 50.8145 -41.1419 75° East  Level FlightAware Approximate
08:20AM 50.8527 -40.9127 75° East  Level FlightAware Approximate
08:21AM 50.8905 -40.6832 75° East  Level FlightAware Approximate
08:22AM 50.9278 -40.4533 75° East  Level FlightAware Approximate
08:23AM 50.9639 -40.2284 76° East  Level FlightAware Approximate
08:24AM 50.9995 -40.0030 76° East  Level FlightAware Approximate
08:25AM 51.0095 -39.7720 86° East  Level FlightAware Approximate
08:26AM 51.0188 -39.5400 86° East  Level FlightAware Approximate
08:27AM 51.0275 -39.3079 86° East  Level FlightAware Approximate
08:28AM 51.0359 -39.0757 87° East  Level FlightAware Approximate
08:29AM 51.0437 -38.8434 87° East  Level FlightAware Approximate
08:30AM 51.0511 -38.6110 87° East  Level FlightAware Approximate
08:31AM 51.0581 -38.3786 87° East  Level FlightAware Approximate
08:32AM 51.0645 -38.1461 87° East  Level FlightAware Approximate
08:33AM 51.0706 -37.9136 88° East  Level FlightAware Approximate
08:34AM 51.0761 -37.6809 88° East  Level FlightAware Approximate
08:35AM 51.0812 -37.4483 88° East  Level FlightAware Approximate
08:36AM 51.0858 -37.2155 88° East  Level FlightAware Approximate
08:37AM 51.0900 -36.9828 88° East  Level FlightAware Approximate
08:38AM 51.0937 -36.7500 88° East  Level FlightAware Approximate
08:39AM 51.0970 -36.5171 89° East  Level FlightAware Approximate
08:40AM 51.0998 -36.2842 89° East  Level FlightAware Approximate
08:41AM 51.1021 -36.0513 89° East  Level FlightAware Approximate
08:42AM 51.1039 -35.8184 89° East  Level FlightAware Approximate
08:43AM 51.1053 -35.5855 89° East  Level FlightAware Approximate
08:44AM 51.1063 -35.3526 90° East  Level FlightAware Approximate
08:45AM 51.1067 -35.1196 90° East  Level FlightAware Approximate
08:46AM 51.1067 -34.8867 90° East  Level FlightAware Approximate
08:47AM 51.1063 -34.6537 90° East  Level FlightAware Approximate
08:48AM 51.1054 -34.4207 90° East  Level FlightAware Approximate
08:49AM 51.1040 -34.1878 90° East  Level FlightAware Approximate
08:50AM 51.1021 -33.9549 91° East  Level FlightAware Approximate
08:51AM 51.0998 -33.7220 91° East  Level FlightAware Approximate
08:52AM 51.0970 -33.4891 91° East  Level FlightAware Approximate
08:53AM 51.0938 -33.2563 91° East  Level FlightAware Approximate
08:54AM 51.0901 -33.0235 91° East  Level FlightAware Approximate
08:55AM 51.0860 -32.7907 92° East  Level FlightAware Approximate
08:56AM 51.0813 -32.5580 92° East  Level FlightAware Approximate
08:57AM 51.0763 -32.3253 92° East  Level FlightAware Approximate
08:58AM 51.0707 -32.0927 92° East  Level FlightAware Approximate
08:59AM 51.0647 -31.8601 92° East  Level FlightAware Approximate
09:00AM 51.0583 -31.6276 92° East  Level FlightAware Approximate
09:01AM 51.0513 -31.3952 93° East  Level FlightAware Approximate
09:02AM 51.0439 -31.1628 93° East  Level FlightAware Approximate
09:03AM 51.0361 -30.9306 93° East  Level FlightAware Approximate
09:04AM 51.0278 -30.6984 93° East  Level FlightAware Approximate
09:05AM 51.0191 -30.4675 93° East  Level FlightAware Approximate
09:06AM 51.0098 -30.2355 94° East  Level FlightAware Approximate
09:07AM 51.0001 -30.0035 94° East  Level FlightAware Approximate
09:08AM 50.9868 -29.7721 95° East  Level FlightAware Approximate
09:09AM 50.9730 -29.5408 95° East  Level FlightAware Approximate
09:10AM 50.9588 -29.3097 96° East  Level FlightAware Approximate
09:11AM 50.9440 -29.0787 96° East  Level FlightAware Approximate
09:12AM 50.9289 -28.8478 96° East  Level FlightAware Approximate
09:13AM 50.9132 -28.6171 96° East  Level FlightAware Approximate
09:14AM 50.8971 -28.3866 96° East  Level FlightAware Approximate
09:15AM 50.8806 -28.1562 96° East  Level FlightAware Approximate
09:16AM 50.8636 -27.9260 97° East  Level FlightAware Approximate
09:17AM 50.8461 -27.6960 97° East  Level FlightAware Approximate
09:18AM 50.8283 -27.4661 97° East  Level FlightAware Approximate
09:19AM 50.8099 -27.2364 97° East  Level FlightAware Approximate
09:20AM 50.7911 -27.0069 97° East  Level FlightAware Approximate
09:21AM 50.7719 -26.7776 97° East  Level FlightAware Approximate
09:22AM 50.7522 -26.5485 98° East  Level FlightAware Approximate
09:23AM 50.7320 -26.3195 98° East  Level FlightAware Approximate
09:24AM 50.7114 -26.0908 98° East  Level FlightAware Approximate
09:25AM 50.6903 -25.8623 98° East  Level FlightAware Approximate
09:26AM 50.6689 -25.6339 98° East  Level FlightAware Approximate
09:27AM 50.6469 -25.4058 99° East  Level FlightAware Approximate
09:28AM 50.6245 -25.1779 99° East  Level FlightAware Approximate
09:29AM 50.6017 -24.9503 99° East  Level FlightAware Approximate
09:30AM 50.5785 -24.7228 99° East  Level FlightAware Approximate
09:31AM 50.5549 -24.4955 99° East  Level FlightAware Approximate
09:32AM 50.5308 -24.2685 99° East  Level FlightAware Approximate
09:33AM 50.5063 -24.0417 100° East  Level FlightAware Approximate
09:34AM 50.4814 -23.8152 100° East  Level FlightAware Approximate
09:35AM 50.4562 -23.5888 100° East  Level FlightAware Approximate
09:36AM 50.4310 -23.3626 100° East  Level FlightAware Approximate
09:37AM 50.4053 -23.1366 100° East  Level FlightAware Approximate
09:38AM 50.3792 -22.9109 100° East  Level FlightAware Approximate
09:39AM 50.3526 -22.6854 100° East  Level FlightAware Approximate
09:40AM 50.3256 -22.4602 101° East  Level FlightAware Approximate
09:41AM 50.2981 -22.2352 101° East  Level FlightAware Approximate
09:42AM 50.2703 -22.0105 101° East  Level FlightAware Approximate
09:43AM 50.2420 -21.7860 101° East  Level FlightAware Approximate
09:44AM 50.2132 -21.5618 101° East  Level FlightAware Approximate
09:45AM 50.1841 -21.3379 101° East  Level FlightAware Approximate
09:46AM 50.1545 -21.1143 102° East  Level FlightAware Approximate
09:47AM 50.1244 -20.8910 102° East  Level FlightAware Approximate
09:48AM 50.0940 -20.6679 102° East  Level FlightAware Approximate
09:49AM 50.0631 -20.4451 102° East  Level FlightAware Approximate
09:50AM 50.0318 -20.2226 102° East  Level FlightAware Approximate
09:51AM 50.0001 -20.0004 102° East  Level FlightAware Approximate
09:52AM 49.9926 -19.7732 93° East  Level FlightAware Approximate
09:53AM 49.9848 -19.5460 93° East  Level FlightAware Approximate
09:54AM 49.9765 -19.3189 93° East  Level FlightAware Approximate
09:55AM 49.9677 -19.0919 93° East  Level FlightAware Approximate
09:56AM 49.9585 -18.8650 94° East  Level FlightAware Approximate
09:57AM 49.9489 -18.6381 94° East  Level FlightAware Approximate
09:58AM 49.9389 -18.4114 94° East  Level FlightAware Approximate
09:59AM 49.9284 -18.1847 94° East  Level FlightAware Approximate
10:00AM 49.9174 -17.9582 94° East  Level FlightAware Approximate
10:01AM 49.9060 -17.7313 94° East  Level FlightAware Approximate
10:02AM 49.8942 -17.5046 95° East  Level FlightAware Approximate
10:03AM 49.8819 -17.2780 95° East  Level FlightAware Approximate
10:04AM 49.8691 -17.0515 95° East  Level FlightAware Approximate
10:05AM 49.8560 -16.8251 95° East  Level FlightAware Approximate
10:06AM 49.8424 -16.5989 95° East  Level FlightAware Approximate
10:07AM 49.8283 -16.3727 95° East  Level FlightAware Approximate
10:08AM 49.8138 -16.1467 96° East  Level FlightAware Approximate
10:09AM 49.7989 -15.9209 96° East  Level FlightAware Approximate
10:10AM 49.7835 -15.6952 96° East  Level FlightAware Approximate
10:11AM 49.7677 -15.4696 96° East  Level FlightAware Approximate
10:12AM 49.7514 -15.2442 96° East  Level FlightAware Approximate
10:13AM 49.7347 -15.0189 96° East  Level FlightAware Approximate
10:14AM 49.7172 -14.7939 97° East  Level FlightAware Approximate
10:15AM 49.6991 -14.5690 97° East  Level FlightAware Approximate
10:16AM 49.6807 -14.3443 97° East  Level FlightAware Approximate
10:17AM 49.6618 -14.1198 97° East  Level FlightAware Approximate
10:18AM 49.6424 -13.8955 98° East  Level FlightAware Approximate
10:19AM 49.6226 -13.6713 98° East  Level FlightAware Approximate
10:20AM 49.6024 -13.4473 98° East  Level FlightAware Approximate
10:21AM 49.5818 -13.2236 98° East  Level FlightAware Approximate
10:22AM 49.5607 -13.0000 98° East  Level FlightAware Approximate
10:23AM 49.5392 -12.7766 98° East  Level FlightAware Approximate
10:24AM 49.5177 -12.5533 98° East  Level FlightAware Approximate
10:24AM 49.2870 -9.4790 98° East 536 617 35,100  Level FlightAware
10:24AM 49.2640 -9.3250 103° East 536 617 35,100  Level FlightAware
10:25AM 49.4959 -12.3301 98° East  Level FlightAware Approximate
10:25AM 49.2470 -9.2120 103° East 536 617 35,100  Level FlightAware
10:26AM 49.2140 -9.0120 103° East 535 616 35,100 -180 Level FlightAware
10:26AM 49.2084 -8.9836 103° East 519 597 35,000  Descending FlightAware UK
10:26AM 49.1911 -8.8732 103° East 519 597 35,100 120 Climbing FlightAware UK
10:27AM 49.1820 -8.8140 103° East 536 617 35,100 -120 Level FlightAware
10:27AM 49.1556 -8.6530 103° East 521 600 35,000  Descending FlightAware UK
10:27AM 49.1550 -8.6490 103° East 535 616 35,100 120 Climbing FlightAware
10:28AM 49.1310 -8.4980 104° East 535 616 35,100  Level FlightAware
10:29AM 49.1050 -8.3450 104° East 534 615 35,100 -120 Level FlightAware
10:29AM 49.0829 -8.2140 104° East 519 597 35,000  Descending FlightAware UK
10:29AM 49.0790 -8.1920 104° East 534 615 35,100 120 Climbing FlightAware
10:30AM 49.0530 -8.0440 105° East 533 613 35,100  Level FlightAware
10:31AM 49.0170 -7.9110 105° East 531 611 35,100 -180 Level FlightAware
10:31AM 49.0130 -7.8937 105° East 519 597 35,000 -180 Descending FlightAware UK
10:31AM 48.9813 -7.7922 105° East 521 600 35,000 120 Level FlightAware UK
10:31AM 48.9760 -7.7760 105° East 532 612 35,100 120 Climbing FlightAware
10:32AM 48.9310 -7.6260 114° Southeast 532 612 35,100  Level FlightAware
10:33AM 48.8930 -7.5040 114° Southeast 533 613 35,100 -180 Level FlightAware
10:33AM 48.8878 -7.4868 114° Southeast 521 600 35,000 -180 Descending FlightAware UK
10:33AM 48.8561 -7.3852 114° Southeast 523 602 35,000 120 Level FlightAware UK
10:33AM 48.8510 -7.3690 114° Southeast 534 615 35,100 120 Climbing FlightAware
10:34AM 48.8100 -7.2400 116° Southeast 533 613 35,100  Level FlightAware
10:35AM 48.7660 -7.0990 116° Southeast 533 613 35,100 -180 Level FlightAware
10:35AM 48.7607 -7.0814 116° Southeast 523 602 35,000 -240 Descending FlightAware UK
10:35AM 48.7287 -6.9805 116° Southeast 523 602 35,000 120 Level FlightAware UK
10:35AM 48.7240 -6.9640 116° Southeast 532 612 35,100 120 Climbing FlightAware
10:36AM 48.6850 -6.8440 116° Southeast 532 612 35,100  Level FlightAware
10:37AM 48.6430 -6.7130 116° Southeast 528 608 35,100 -120 Level FlightAware
10:37AM 48.6001 -6.5784 116° Southeast 523 602 35,000  Descending FlightAware UK
10:37AM 48.6000 -6.5770 116° Southeast 527 606 35,100 120 Climbing FlightAware
10:38AM 48.5570 -6.4470 117° Southeast 526 605 35,100  Level FlightAware
10:39AM 48.5090 -6.2980 116° Southeast 526 605 35,100 -120 Level FlightAware
10:39AM 48.4636 -6.1613 116° Southeast 519 597 35,000  Descending FlightAware UK
10:40AM 48.4610 -6.1530 116° Southeast 526 605 35,100 120 Climbing FlightAware
10:40AM 48.4150 -6.0140 116° Southeast 531 611 35,100  Level FlightAware
10:41AM 48.3680 -5.8680 116° Southeast 531 611 35,100 -120 Level FlightAware
10:41AM 48.3327 -5.7639 116° Southeast 519 597 35,000  Descending FlightAware UK
10:42AM 48.3240 -5.7400 116° Southeast 530 610 35,100 120 Climbing FlightAware
10:42AM 48.2840 -5.6180 116° Southeast 530 610 35,100  Level FlightAware
10:43AM 48.2390 -5.4830 117° Southeast 531 611 35,100  Level FlightAware
10:44AM 48.1910 -5.3460 118° Southeast 530 610 35,100  Level FlightAware
10:44AM 48.1520 -5.2320 117° Southeast 531 611 35,100  Level FlightAware
10:45AM 48.1040 -5.0920 117° Southeast 529 609 35,100  Level FlightAware
10:46AM 48.0570 -4.9550 117° Southeast 528 608 35,100  Level FlightAware
10:46AM 48.0180 -4.8420 117° Southeast 529 609 35,100  Level FlightAware
10:47AM 47.9740 -4.7080 116° Southeast 526 605 35,100  Level FlightAware
10:48AM 47.9260 -4.5700 117° Southeast 525 604 35,100  Level FlightAware
10:48AM 47.8800 -4.4310 116° Southeast 523 602 35,100  Level FlightAware
10:49AM 47.8350 -4.2990 117° Southeast 523 602 35,100  Level FlightAware
10:50AM 47.7920 -4.1700 116° Southeast 525 604 35,100  Level FlightAware
10:50AM 47.7440 -4.0250 116° Southeast 525 604 35,100  Level FlightAware
10:51AM 47.7070 -3.9180 117° Southeast 526 605 35,100  Level FlightAware
10:52AM 47.6630 -3.7830 116° Southeast 524 603 35,100  Level FlightAware
10:52AM 47.6140 -3.6420 117° Southeast 522 601 35,100  Level FlightAware
10:53AM 47.5680 -3.5050 116° Southeast 521 600 35,100  Level FlightAware
10:54AM 47.5240 -3.3750 117° Southeast 518 596 35,100  Level FlightAware
10:54AM 47.4810 -3.2480 117° Southeast 518 596 35,100  Level FlightAware
10:55AM 47.4360 -3.1160 117° Southeast 516 594 35,100  Level FlightAware
10:56AM 47.3930 -2.9900 117° Southeast 515 593 35,100  Level FlightAware
10:56AM 47.3550 -2.8730 116° Southeast 516 594 35,100  Level FlightAware
10:57AM 47.3090 -2.7400 117° Southeast 520 598 35,100  Level FlightAware
10:58AM 47.2710 -2.6220 115° Southeast 521 600 35,100  Level FlightAware
10:59AM 47.2170 -2.4640 117° Southeast 518 596 35,100  Level FlightAware
10:59AM 47.1760 -2.3370 115° Southeast 517 595 35,100  Level FlightAware
11:00AM 47.1340 -2.2110 116° Southeast 517 595 35,100  Level FlightAware
11:01AM 47.0900 -2.0780 116° Southeast 518 596 35,100  Level FlightAware
11:01AM 47.0430 -1.9320 115° Southeast 517 595 35,100  Level FlightAware
11:02AM 47.0060 -1.8190 116° Southeast 516 594 35,100  Level FlightAware
11:03AM 46.9420 -1.6660 121° Southeast 508 585 35,100  Level FlightAware
11:04AM 46.8690 -1.5030 123° Southeast 508 585 35,100  Level FlightAware
11:04AM 46.8170 -1.3870 123° Southeast 509 586 35,100  Level FlightAware
11:05AM 46.7620 -1.2600 122° Southeast 509 586 35,100  Level FlightAware
11:06AM 46.7080 -1.1360 122° Southeast 509 586 35,100  Level FlightAware
11:07AM 46.6420 -0.9820 122° Southeast 508 585 35,100  Level FlightAware
11:07AM 46.5920 -0.8690 123° Southeast 508 585 35,100  Level FlightAware
11:08AM 46.5450 -0.7560 121° Southeast 509 586 35,100  Level FlightAware
11:09AM 46.4880 -0.6260 122° Southeast 511 588 35,100  Level FlightAware
11:10AM 46.4260 -0.4840 122° Southeast 511 588 35,100  Level FlightAware
11:10AM 46.3760 -0.3620 121° Southeast 518 596 35,100  Level FlightAware
11:11AM 46.3320 -0.2140 113° Southeast 532 612 35,100  Level FlightAware
11:12AM 46.3010 -0.0790 108° East 532 612 35,100  Level FlightAware
11:13AM 46.2690 0.0600 108° East 535 616 35,100  Level FlightAware
11:13AM 46.2340 0.2120 108° East 534 615 35,100  Level FlightAware
11:14AM 46.2170 0.3570 100° East 553 636 35,100  Level FlightAware
11:15AM 46.2030 0.4990 98° East 554 638 35,100  Level FlightAware
11:15AM 46.1860 0.6670 98° East 555 639 35,100  Level FlightAware
11:16AM 46.1730 0.7980 98° East 553 636 35,100  Level FlightAware
11:17AM 46.1550 0.9720 98° East 551 634 35,100  Level FlightAware
11:17AM 46.1410 1.1140 98° East 550 633 35,100  Level FlightAware
11:18AM 46.1250 1.2770 98° East 550 633 35,100  Level FlightAware
11:19AM 46.1130 1.4270 97° East 554 638 35,100  Level FlightAware
11:20AM 46.0940 1.6940 96° East 554 638 35,100  Level FlightAware
11:21AM 46.0790 1.8770 97° East 554 638 35,100  Level FlightAware
11:22AM 46.0650 2.0390 97° East 553 636 35,100  Level FlightAware
11:22AM 46.0510 2.2070 97° East 556 640 35,100  Level FlightAware
11:23AM 46.0340 2.4270 96° East 557 641 35,100  Level FlightAware
11:24AM 46.0050 2.6150 102° East 533 613 35,100  Level FlightAware
11:25AM 45.9560 2.7410 119° Southeast 513 590 35,100  Level FlightAware
11:26AM 45.9010 2.8520 125° Southeast 514 592 35,100  Level FlightAware
11:26AM 45.8660 2.9640 114° Southeast 534 615 35,100 600 Level FlightAware
11:27AM 45.8310 3.1040 110° East 532 612 35,900 900 Climbing FlightAware
11:27AM 45.8030 3.2050 112° Southeast 526 605 36,200 420 Climbing FlightAware
11:28AM 45.7550 3.3100 123° Southeast 511 588 36,400 300 Climbing FlightAware
11:29AM 45.6590 3.4160 142° Southeast 484 557 36,700 420 Climbing FlightAware
11:30AM 45.5850 3.4770 150° Southeast 484 557 37,100 240 Climbing FlightAware
11:30AM 45.5020 3.5460 150° Southeast 483 556 37,100  Level FlightAware
11:31AM 45.4260 3.6430 138° Southeast 517 595 37,100  Level FlightAware
11:32AM 45.3730 3.7480 126° Southeast 518 596 37,100  Level FlightAware
11:32AM 45.3050 3.8780 127° Southeast 522 601 37,100  Level FlightAware
11:33AM 45.2620 3.9680 124° Southeast 523 602 37,100  Level FlightAware
11:34AM 45.2040 4.0870 125° Southeast 522 601 37,100  Level FlightAware
11:34AM 45.1460 4.2050 125° Southeast 521 600 37,100  Level FlightAware
11:35AM 45.0930 4.3100 126° Southeast 520 598 37,100  Level FlightAware
11:36AM 45.0530 4.4320 115° Southeast 538 619 37,100  Level FlightAware
11:36AM 45.0170 4.5590 112° Southeast 540 621 37,100  Level FlightAware
11:37AM 44.9730 4.7180 111° Southeast 546 628 37,100  Level FlightAware
11:38AM 44.9270 4.8440 117° Southeast 529 609 37,100  Level FlightAware
11:38AM 44.8620 4.9670 127° Southeast 527 606 37,100  Level FlightAware
11:39AM 44.8100 5.0640 127° Southeast 530 610 37,100  Level FlightAware
11:40AM 44.7470 5.1830 127° Southeast 531 611 37,100  Level FlightAware
11:40AM 44.6840 5.2800 132° Southeast 515 593 37,100  Level FlightAware
11:41AM 44.6150 5.3760 135° Southeast 515 593 37,100  Level FlightAware
11:42AM 44.5440 5.4750 135° Southeast 516 594 37,100  Level FlightAware
11:43AM 44.4690 5.5780 136° Southeast 516 594 37,100  Level FlightAware
11:43AM 44.4020 5.6690 136° Southeast 516 594 37,100  Level FlightAware
11:44AM 44.3310 5.7870 130° Southeast 527 606 37,100  Level FlightAware
11:45AM 44.2740 5.9080 123° Southeast 531 611 37,100  Level FlightAware
11:45AM 44.2320 6.0040 121° Southeast 530 610 37,100  Level FlightAware
11:46AM 44.1680 6.1490 122° Southeast 530 610 37,100  Level FlightAware
11:47AM 44.1160 6.2650 122° Southeast 531 611 37,100  Level FlightAware
11:47AM 44.0600 6.3900 122° Southeast 531 611 37,100  Level FlightAware
11:48AM 44.0050 6.5110 122° Southeast 533 613 37,100  Level FlightAware
11:49AM 43.9540 6.6250 122° Southeast 537 618 37,100  Level FlightAware
11:49AM 43.9000 6.7420 123° Southeast 541 623 37,100  Level FlightAware
11:50AM 43.8440 6.8650 122° Southeast 540 621 37,100  Level FlightAware
11:51AM 43.7970 6.9670 123° Southeast 542 624 37,100  Level FlightAware
11:51AM 43.7440 7.0810 123° Southeast 541 623 37,100  Level FlightAware
11:53AM 43.6450 7.2910 123° Southeast 537 618 37,100  Level FlightAware
11:53AM 43.5940 7.4000 123° Southeast 537 618 37,100  Level FlightAware
11:54AM 43.5310 7.5320 123° Southeast 537 618 37,100  Level FlightAware
11:55AM 43.4740 7.6490 124° Southeast 536 617 37,100  Level FlightAware
11:55AM 43.4210 7.7600 123° Southeast 536 617 37,100  Level FlightAware
11:56AM 43.3680 7.8700 124° Southeast 535 616 37,100  Level FlightAware
11:57AM 43.3120 7.9870 123° Southeast 536 617 37,100  Level FlightAware
11:57AM 43.2560 8.1030 124° Southeast 538 619 37,100  Level FlightAware
11:58AM 43.1960 8.2250 124° Southeast 538 619 37,100  Level FlightAware
11:59AM 43.1390 8.3410 124° Southeast 540 621 37,100  Level FlightAware
11:59AM 43.0780 8.4660 124° Southeast 541 623 37,100  Level FlightAware
12:00PM 43.0380 8.5490 123° Southeast 542 624 37,100  Level FlightAware
12:01PM 42.9820 8.6590 125° Southeast 542 624 37,100  Level FlightAware
12:01PM 42.9310 8.7640 124° Southeast 543 625 37,100  Level FlightAware
12:02PM 42.8740 8.8770 125° Southeast 542 624 37,100  Level FlightAware
12:03PM 42.8160 8.9930 124° Southeast 542 624 37,100  Level FlightAware
12:03PM 42.7710 9.1000 120° Southeast 553 636 37,100  Level FlightAware
12:04PM 42.7280 9.2410 113° Southeast 555 639 37,100  Level FlightAware
12:05PM 42.6870 9.3730 113° Southeast 556 640 37,100  Level FlightAware
12:05PM 42.6470 9.4940 114° Southeast 552 635 37,100  Level FlightAware
12:06PM 42.6020 9.6370 113° Southeast 554 638 37,100  Level FlightAware
12:07PM 42.5590 9.7790 112° Southeast 554 638 37,100  Level FlightAware
12:07PM 42.5200 9.9070 112° Southeast 553 636 37,100  Level FlightAware
12:08PM 42.4760 10.0470 113° Southeast 554 638 37,100  Level FlightAware
12:09PM 42.4350 10.1780 113° Southeast 555 639 37,100  Level FlightAware
12:09PM 42.3950 10.3060 113° Southeast 555 639 37,100  Level FlightAware
12:10PM 42.3510 10.4460 113° Southeast 554 638 37,100  Level FlightAware
12:11PM 42.3110 10.5730 113° Southeast 553 636 37,100  Level FlightAware
12:12PM 42.2380 10.8020 113° Southeast 551 634 37,100  Level FlightAware
12:13PM 42.1970 10.9290 114° Southeast 551 634 37,100  Level FlightAware
12:13PM 42.1570 11.0550 113° Southeast 551 634 37,100  Level FlightAware
12:14PM 42.1150 11.1810 114° Southeast 552 635 37,100  Level FlightAware
12:15PM 42.0480 11.3050 126° Southeast 545 627 37,100  Level FlightAware
12:15PM 41.9900 11.3950 131° Southeast 538 619 37,100  Level FlightAware
12:16PM 41.9130 11.5060 133° Southeast 543 625 37,100  Level FlightAware
12:17PM 41.8540 11.5930 132° Southeast 537 618 37,100  Level FlightAware
12:17PM 41.7870 11.6920 132° Southeast 538 619 37,100  Level FlightAware
12:18PM 41.7200 11.7920 132° Southeast 538 619 37,100  Level FlightAware
12:19PM 41.6520 11.8920 132° Southeast 538 619 37,100  Level FlightAware
12:19PM 41.5840 11.9910 110° East 539 620 37,100  Level FlightAware
12:21PM 41.5625 12.2131 110° East  Level Estimated
12:22PM 41.3300 12.3590 133° Southeast 544 626 37,100  Level FlightAware
12:23PM 41.2460 12.4800 133° Southeast 545 627 37,100  Level FlightAware
12:23PM 41.1710 12.5880 133° Southeast 544 626 37,100  Level FlightAware
12:24PM 41.0880 12.7130 131° Southeast 548 631 37,100  Level FlightAware
12:25PM 41.0330 12.8290 122° Southeast 550 633 37,100  Level FlightAware
12:26PM 40.9780 12.9460 122° Southeast 550 633 37,100  Level FlightAware
12:26PM 40.9220 13.0670 121° Southeast 552 635 37,100  Level FlightAware
12:27PM 40.8620 13.2010 121° Southeast 552 635 37,100  Level FlightAware
12:28PM 40.8110 13.3140 121° Southeast 552 635 37,100  Level FlightAware
12:28PM 40.7560 13.4350 121° Southeast 551 634 37,100  Level FlightAware
12:29PM 40.7030 13.5490 121° Southeast 550 633 37,100  Level FlightAware
12:30PM 40.6500 13.6640 121° Southeast 549 632 37,100  Level FlightAware
12:30PM 40.5970 13.7790 121° Southeast 550 633 37,100  Level FlightAware
12:31PM 40.5440 13.8930 121° Southeast 550 633 37,100  Level FlightAware
12:32PM 40.4920 14.0080 121° Southeast 552 635 37,100  Level FlightAware
12:32PM 40.4380 14.1220 122° Southeast 553 636 37,100  Level FlightAware
12:33PM 40.3960 14.2140 121° Southeast 553 636 37,100  Level FlightAware
12:34PM 40.3420 14.3280 122° Southeast 552 635 37,100  Level FlightAware
12:35PM 40.2670 14.4900 121° Southeast 551 634 37,100  Level FlightAware
12:35PM 40.2200 14.5890 122° Southeast 550 633 37,100  Level FlightAware
12:36PM 40.1630 14.7110 121° Southeast 549 632 37,100  Level FlightAware
12:37PM 40.1040 14.8320 122° Southeast 546 628 37,100  Level FlightAware
12:37PM 40.0520 14.9440 121° Southeast 546 628 37,100  Level FlightAware
12:38PM 39.9930 15.0670 122° Southeast 546 628 37,100  Level FlightAware
12:39PM 39.9370 15.1840 122° Southeast 545 627 37,100  Level FlightAware
12:39PM 39.8830 15.2950 122° Southeast 544 626 37,100  Level FlightAware
12:40PM 39.8210 15.4250 122° Southeast 544 626 37,100  Level FlightAware
12:41PM 39.7670 15.5330 123° Southeast 546 628 37,100  Level FlightAware
12:41PM 39.7150 15.6410 122° Southeast 547 629 37,100  Level FlightAware
12:42PM 39.6580 15.7610 122° Southeast 548 631 37,100  Level FlightAware
12:43PM 39.6110 15.8810 117° Southeast 550 633 37,100  Level FlightAware
12:44PM 39.5670 16.0080 114° Southeast 550 633 37,100  Level FlightAware
12:44PM 39.5310 16.1130 114° Southeast 550 633 37,100  Level FlightAware
12:45PM 39.4870 16.2400 114° Southeast 550 633 37,100  Level FlightAware
12:46PM 39.4460 16.3640 113° Southeast 550 633 37,100  Level FlightAware
12:46PM 39.4000 16.4990 114° Southeast 549 632 37,100  Level FlightAware
12:47PM 39.3630 16.6100 113° Southeast 548 631 37,100  Level FlightAware
12:48PM 39.3150 16.7510 114° Southeast 548 631 37,100  Level FlightAware
12:48PM 39.2740 16.8700 114° Southeast 547 629 37,100  Level FlightAware
12:49PM 39.2290 17.0010 114° Southeast 544 626 37,100  Level FlightAware
12:50PM 39.1860 17.1260 114° Southeast 544 626 37,100  Level FlightAware
12:51PM 39.1410 17.2590 114° Southeast 543 625 37,100  Level FlightAware
12:51PM 39.1010 17.3740 114° Southeast 543 625 37,100  Level FlightAware
12:52PM 39.0550 17.5040 114° Southeast 544 626 37,100  Level FlightAware
12:53PM 39.0180 17.6100 114° Southeast 543 625 37,100  Level FlightAware
12:53PM 38.9680 17.7510 114° Southeast 543 625 37,100  Level FlightAware
12:54PM 38.9260 17.8710 114° Southeast 543 625 37,100  Level FlightAware
12:55PM 38.8830 17.9910 115° Southeast 542 624 37,100  Level FlightAware
12:55PM 38.8370 18.1200 115° Southeast 542 624 37,100  Level FlightAware
12:56PM 38.7960 18.2370 114° Southeast 541 623 37,100  Level FlightAware
12:57PM 38.7510 18.3590 115° Southeast 542 624 37,100  Level FlightAware
12:58PM 38.7050 18.4870 115° Southeast 541 623 37,100  Level FlightAware
12:58PM 38.6610 18.6090 115° Southeast 540 621 37,100  Level FlightAware
12:59PM 38.6190 18.7240 115° Southeast 539 620 37,100  Level FlightAware
01:00PM 38.5570 18.8970 115° Southeast 536 617 37,100  Level FlightAware
01:01PM 38.5060 19.0520 113° Southeast 534 615 37,100  Level FlightAware
01:01PM 38.4720 19.1700 110° East 534 615 37,100  Level FlightAware
01:02PM 38.4340 19.3000 110° East 531 611 37,100  Level FlightAware
01:03PM 38.3980 19.4230 110° East 530 610 37,100  Level FlightAware
01:04PM 38.3620 19.5410 111° Southeast 532 612 37,100  Level FlightAware
01:04PM 38.3270 19.6580 111° Southeast 532 612 37,100  Level FlightAware
01:05PM 38.2910 19.7740 112° Southeast 532 612 37,100  Level FlightAware
01:06PM 38.2520 19.9030 111° Southeast 531 611 37,100  Level FlightAware
01:06PM 38.2150 20.0220 112° Southeast 530 610 37,100  Level FlightAware
01:07PM 38.1810 20.1350 111° Southeast 530 610 37,100  Level FlightAware
01:08PM 38.1450 20.2510 112° Southeast 529 609 37,100  Level FlightAware
01:08PM 38.1040 20.3840 111° Southeast 529 609 37,100  Level FlightAware
01:09PM 38.0730 20.4850 111° Southeast 529 609 37,100  Level FlightAware
01:10PM 38.0370 20.6000 112° Southeast 529 609 37,100  Level FlightAware
01:10PM 37.9970 20.7270 112° Southeast 529 609 37,100  Level FlightAware
01:11PM 37.9550 20.8590 112° Southeast 528 608 37,100  Level FlightAware
01:12PM 37.9150 20.9880 111° Southeast 528 608 37,100  Level FlightAware
01:13PM 37.8780 21.1030 112° Southeast 528 608 37,100  Level FlightAware
01:13PM 37.8420 21.2180 112° Southeast 528 608 37,100  Level FlightAware
01:14PM 37.8130 21.3060 113° Southeast 527 606 37,100  Level FlightAware
01:14PM 37.7730 21.4280 112° Southeast 525 604 37,100  Level FlightAware
01:15PM 37.7390 21.5340 112° Southeast 526 605 37,100  Level FlightAware
01:16PM 37.6900 21.6870 112° Southeast 525 604 37,100  Level FlightAware
01:17PM 37.6550 21.7940 112° Southeast 525 604 37,100  Level FlightAware
01:17PM 37.6180 21.9100 112° Southeast 525 604 37,100  Level FlightAware
01:18PM 37.5770 22.0310 113° Southeast 524 603 37,100  Level FlightAware
01:19PM 37.5400 22.1440 112° Southeast 524 603 37,100  Level FlightAware
01:19PM 37.5020 22.2620 112° Southeast 523 602 37,100  Level FlightAware
01:20PM 37.4620 22.3800 113° Southeast 522 601 37,100  Level FlightAware
01:21PM 37.4200 22.5060 113° Southeast 522 601 37,100  Level FlightAware
01:21PM 37.3830 22.6180 113° Southeast 521 600 37,100  Level FlightAware
01:22PM 37.3450 22.7290 113° Southeast 521 600 37,100  Level FlightAware
01:23PM 37.3100 22.8330 113° Southeast 522 601 37,100  Level FlightAware
01:23PM 37.2720 22.9470 113° Southeast 522 601 37,100  Level FlightAware
01:24PM 37.2300 23.0690 113° Southeast 521 600 37,100  Level FlightAware
01:25PM 37.1970 23.1660 113° Southeast 521 600 37,100  Level FlightAware
01:25PM 37.1610 23.2720 113° Southeast 521 600 37,100  Level FlightAware
01:26PM 37.1180 23.3970 113° Southeast 521 600 37,100  Level FlightAware
01:27PM 37.0840 23.4970 113° Southeast 522 601 37,100  Level FlightAware
01:28PM 37.0370 23.6300 114° Southeast 522 601 37,100  Level FlightAware
01:28PM 36.9980 23.7430 113° Southeast 522 601 37,100  Level FlightAware
01:29PM 36.9580 23.8560 114° Southeast 521 600 37,100  Level FlightAware
01:30PM 36.9170 23.9750 113° Southeast 521 600 37,100  Level FlightAware
01:30PM 36.8780 24.0850 114° Southeast 522 601 37,100  Level FlightAware
01:31PM 36.8360 24.2010 114° Southeast 523 602 37,100  Level FlightAware
01:32PM 36.7930 24.3250 113° Southeast 523 602 37,100  Level FlightAware
01:32PM 36.7510 24.4410 114° Southeast 522 601 37,100  Level FlightAware
01:33PM 36.7090 24.5590 114° Southeast 522 601 37,100  Level FlightAware
01:34PM 36.6720 24.6640 114° Southeast 524 603 37,100  Level FlightAware
01:35PM 36.6260 24.7930 114° Southeast 524 603 37,100  Level FlightAware
01:35PM 36.5860 24.9000 115° Southeast 525 604 37,100  Level FlightAware
01:36PM 36.5440 25.0160 114° Southeast 525 604 37,100  Level FlightAware
01:37PM 36.5050 25.1260 114° Southeast 525 604 37,100  Level FlightAware
01:37PM 36.4680 25.2250 115° Southeast 526 605 37,100  Level FlightAware
01:38PM 36.4230 25.3460 115° Southeast 527 606 37,100  Level FlightAware
01:39PM 36.3830 25.4590 114° Southeast 528 608 37,100  Level FlightAware
01:39PM 36.3460 25.5580 115° Southeast 528 608 37,100  Level FlightAware
01:41PM 36.2400 25.8420 115° Southeast 531 611 37,100  Level FlightAware
01:42PM 36.1840 25.9940 114° Southeast 533 613 37,100  Level FlightAware
01:42PM 36.1450 26.0940 116° Southeast 533 613 37,100  Level FlightAware
01:43PM 36.1170 26.1710 114° Southeast 534 615 37,100  Level FlightAware
01:44PM 36.0520 26.3430 115° Southeast 535 616 37,100  Level FlightAware
01:45PM 36.0020 26.4730 115° Southeast 535 616 37,100  Level FlightAware
01:45PM 35.9610 26.5810 115° Southeast 536 617 37,100  Level FlightAware
01:46PM 35.9160 26.6970 116° Southeast 537 618 37,100  Level FlightAware
01:47PM 35.8490 26.8710 115° Southeast 536 617 37,100  Level FlightAware
01:48PM 35.8040 26.9900 115° Southeast 536 617 37,100  Level FlightAware
01:49PM 35.7610 27.1030 115° Southeast 536 617 37,100  Level FlightAware
01:50PM 35.6940 27.2710 116° Southeast 537 618 37,100  Level FlightAware
01:50PM 35.6600 27.3600 115° Southeast 537 618 37,100  Level FlightAware
01:51PM 35.6170 27.4730 115° Southeast 537 618 37,100  Level FlightAware
01:52PM 35.5650 27.6120 115° Southeast 537 618 37,100  Level FlightAware
01:53PM 35.5320 27.6970 115° Southeast 537 618 37,100  Level FlightAware
01:53PM 35.4980 27.7860 115° Southeast 537 618 37,100  Level FlightAware
01:54PM 35.4160 27.9760 118° Southeast 37,100  Level FlightAware
01:55PM 35.3680 28.0970 116° Southeast 539 620 37,100  Level FlightAware
01:55PM 35.3170 28.2230 116° Southeast 539 620 37,100  Level FlightAware
01:56PM 35.2700 28.3410 116° Southeast 540 621 37,100  Level FlightAware
01:57PM 35.2250 28.4500 117° Southeast 540 621 37,100  Level FlightAware
01:57PM 35.1770 28.5710 116° Southeast 540 621 37,100  Level FlightAware
01:58PM 35.1460 28.6480 116° Southeast 540 621 37,100  Level FlightAware
01:59PM 35.0970 28.7670 117° Southeast 541 623 37,100  Level FlightAware
01:59PM 35.0500 28.8830 116° Southeast 541 623 37,100  Level FlightAware
02:00PM 34.9850 29.0380 117° Southeast 542 624 37,100  Level FlightAware
02:01PM 34.9300 29.1740 116° Southeast 542 624 37,100  Level FlightAware
02:02PM 34.8970 29.2580 116° Southeast 542 624 37,100  Level FlightAware
02:03PM 34.8320 29.4090 118° Southeast 543 625 37,100  Level FlightAware
02:03PM 34.7850 29.5210 117° Southeast 541 623 37,100  Level FlightAware
02:04PM 34.7350 29.6390 117° Southeast 543 625 37,100  Level FlightAware
02:05PM 34.6940 29.7380 117° Southeast 545 627 37,100  Level FlightAware
02:05PM 34.6470 29.8500 117° Southeast 545 627 37,100  Level FlightAware
02:06PM 34.5750 30.0200 117° Southeast 545 627 37,100  Level FlightAware
02:07PM 34.5220 30.1320 120° Southeast 548 631 37,100  Level FlightAware
02:08PM 34.4650 30.2490 121° Southeast 550 633 37,100  Level FlightAware
02:08PM 34.4130 30.3580 120° Southeast 551 634 37,100  Level FlightAware
02:09PM 34.3660 30.4540 121° Southeast 552 635 37,100  Level FlightAware
02:10PM 34.3140 30.5640 120° Southeast 553 636 37,100  Level FlightAware
02:10PM 34.2670 30.6630 120° Southeast 550 633 37,100  Level FlightAware
02:11PM 34.2170 30.7620 121° Southeast 551 634 37,100  Level FlightAware
02:12PM 34.1680 30.8640 120° Southeast 553 636 37,100  Level FlightAware
02:12PM 34.1070 30.9900 120° Southeast 554 638 37,100  Level FlightAware
02:13PM 34.0590 31.0890 120° Southeast 554 638 37,100  Level FlightAware
02:14PM 34.0080 31.1930 121° Southeast 553 636 37,100  Level FlightAware
02:14PM 33.9480 31.3130 121° Southeast 552 635 37,100  Level FlightAware
02:15PM 33.8950 31.4190 121° Southeast 550 633 37,100  Level FlightAware
02:16PM 33.8280 31.5540 121° Southeast 549 632 37,100  Level FlightAware
02:17PM 33.7680 31.6760 121° Southeast 549 632 37,100  Level FlightAware
02:17PM 33.7100 31.7920 121° Southeast 549 632 37,100  Level FlightAware
02:18PM 33.6580 31.8970 121° Southeast 549 632 37,100  Level FlightAware
02:19PM 33.5980 32.0150 121° Southeast 549 632 37,100  Level FlightAware
02:19PM 33.5460 32.1170 121° Southeast 549 632 37,100  Level FlightAware
02:20PM 33.5060 32.1960 121° Southeast 549 632 37,100  Level FlightAware
02:21PM 33.4650 32.3290 110° East 562 647 37,100  Level FlightAware
02:21PM 33.4390 32.4430 105° East 563 648 37,100 -180 Level FlightAware
02:22PM 33.4100 32.5680 106° East 557 641 36,900 -1,020 Descending FlightAware
02:23PM 33.3790 32.7020 105° East 558 642 35,700 -1,560 Descending FlightAware
02:23PM 33.3510 32.8240 105° East 561 646 34,700 -1,560 Descending FlightAware
02:24PM 33.3190 32.9420 108° East 558 642 33,600 -1,620 Descending FlightAware
02:25PM 33.2690 33.0470 120° Southeast 548 631 32,600 -1,500 Descending FlightAware
02:26PM 33.1970 33.1530 129° Southeast 543 625 31,500 -1,500 Descending FlightAware
02:26PM 33.1320 33.2460 130° Southeast 541 623 30,500 -1,680 Descending FlightAware
02:27PM 33.0610 33.3480 130° Southeast 547 629 29,200 -2,400 Descending FlightAware
02:28PM 32.9960 33.4410 130° Southeast 531 611 27,300 -2,820 Descending FlightAware
02:28PM 32.9210 33.5460 130° Southeast 508 585 25,100 -2,760 Descending FlightAware
02:29PM 32.8640 33.6280 130° Southeast 487 560 23,300 -2,760 Descending FlightAware
02:30PM 32.8030 33.7140 130° Southeast 467 537 21,400 -2,820 Descending FlightAware
02:30PM 32.7420 33.8000 130° Southeast 481 554 19,300 -3,000 Descending FlightAware
02:31PM 32.6850 33.8810 130° Southeast 472 543 17,200 -3,180 Descending FlightAware
02:32PM 32.6260 33.9650 130° Southeast 458 527 15,000 -3,120 Descending FlightAware
02:33PM 32.5680 34.0440 131° Southeast 445 512 12,800 -2,880 Descending FlightAware
02:33PM 32.5190 34.1120 131° Southeast 431 496 11,200 -1,560 Descending FlightAware
02:34PM 32.4510 34.1770 141° Southeast 384 442 10,700 -600 Descending FlightAware
02:35PM 32.3880 34.2070 158° South 337 388 10,400 -660 Descending FlightAware
02:36PM 32.2790 34.2590 158° South 292 336 9,400 -840 Descending FlightAware
02:36PM 32.2630 34.2660 160° South 293 337 9,100 -1,620 Descending FlightAware
02:37PM 32.2250 34.2830 159° South 295 339 8,300 -1,560 Descending FlightAware
02:37PM 32.1950 34.2980 157° South 292 336 7,800 -1,200 Descending FlightAware
02:37PM 32.1810 34.3040 160° South 291 335 7,600 -1,500 Descending FlightAware
02:38PM 32.1390 34.3240 158° South 284 327 6,700 -1,620 Descending FlightAware
02:38PM 32.1040 34.3420 156° South 284 327 5,900 -1,500 Descending FlightAware
02:39PM 32.0730 34.3550 160° South 288 331 5,300 -780 Descending FlightAware
02:39PM 32.0450 34.3850 138° Southeast 262 302 5,200 -540 Descending FlightAware
02:39PM 32.0400 34.3980 114° Southeast 252 290 5,000 -1,260 Descending FlightAware
02:40PM 32.0380 34.4190 96° East 249 287 4,700 -1,080 Descending FlightAware
02:40PM 32.0370 34.4390 93° East 248 285 4,400 -1,380 Descending FlightAware
02:40PM 32.0350 34.4770 94° East 245 282 3,700 -1,260 Descending FlightAware
02:41PM 32.0340 34.5050 92° East 233 268 3,400 -600 Descending FlightAware
02:41PM 32.0280 34.5440 100° East 213 245 3,200 -180 Descending FlightAware
02:42PM 32.0170 34.5950 104° East 212 244 3,200  Level FlightAware
02:42PM 32.0130 34.6140 104° East 212 244 3,200  Level FlightAware
02:43PM 32.0040 34.6560 104° East 212 244 3,200 -240 Level FlightAware
02:43PM 32.0000 34.6850 99° East 181 208 3,000 -840 Descending FlightAware
02:45PM 32.0050 34.7530 85° East 171 197 1,800 -960 Descending FlightAware
02:45PM 32.0060 34.7620 83° East 172 198 1,700 -360 Descending FlightAware
02:46PM 32.0080 34.8000 86° East 168 193 1,500 -780 Descending FlightAware
02:46PM 32.0090 34.8260 87° East 166 191 800 -1,860 Descending FlightAware